Time;durP1;ratioP1;P1;durP2;ratioP2;P2;SDS_P1;SDS_P2;PMS_P1;PMS_P2;Temp;Humidity;BMP_temperature;BMP_pressure;BME280_temperature;BME280_humidity;BME280_pressure;Samples;Min_cycle;Max_cycle;Signal;HPM_P1;HPM_P2
2021/01/28 00:00:27;;;;;;;40.10;18.73;;;0.70;99.90;;;;;;5028461;28;20247;-59
2021/01/28 00:02:52;;;;;;;39.00;17.47;;;0.70;99.90;;;;;;5027615;28;20478;-61
2021/01/28 00:05:19;;;;;;;39.27;17.30;;;0.70;99.90;;;;;;5026600;28;20945;-62
2021/01/28 00:07:45;;;;;;;39.30;17.20;;;0.70;99.90;;;;;;5026948;28;20687;-61
2021/01/28 00:10:11;;;;;;;39.47;16.87;;;0.80;99.90;;;;;;5024983;28;20456;-60
2021/01/28 00:12:37;;;;;;;39.00;16.70;;;0.70;99.90;;;;;;5028205;28;20440;-61
2021/01/28 00:15:04;;;;;;;37.27;16.23;;;0.70;99.90;;;;;;5027473;28;20463;-61
2021/01/28 00:17:30;;;;;;;37.00;16.90;;;0.80;99.90;;;;;;5027157;28;20557;-59
2021/01/28 00:19:55;;;;;;;35.63;16.80;;;0.70;99.90;;;;;;5030169;28;20424;-61
2021/01/28 00:22:21;;;;;;;36.37;16.87;;;0.70;99.90;;;;;;5028059;28;20186;-61
2021/01/28 00:24:46;;;;;;;38.90;16.30;;;0.70;99.90;;;;;;5026310;28;20189;-62
2021/01/28 00:27:12;;;;;;;35.70;17.10;;;0.70;99.90;;;;;;5024340;28;20268;-59
2021/01/28 00:29:38;;;;;;;41.07;18.37;;;0.70;99.90;;;;;;5028623;28;20209;-61
2021/01/28 00:32:05;;;;;;;36.17;16.87;;;0.70;99.90;;;;;;5025341;28;20185;-61
2021/01/28 00:34:31;;;;;;;39.90;18.17;;;0.70;99.90;;;;;;5027504;28;20554;-60
2021/01/28 00:36:57;;;;;;;41.03;18.20;;;0.70;99.90;;;;;;5023717;28;20474;-60
2021/01/28 00:39:22;;;;;;;39.77;18.40;;;0.70;99.90;;;;;;5026416;28;20212;-61
2021/01/28 00:41:48;;;;;;;38.77;18.20;;;0.60;99.90;;;;;;5027100;28;20193;-59
2021/01/28 00:44:17;;;;;;;38.13;17.00;;;0.60;99.90;;;;;;5030281;28;20713;-61
2021/01/28 00:46:42;;;;;;;52.70;19.90;;;0.70;99.90;;;;;;5028690;28;20197;-60
2021/01/28 00:49:08;;;;;;;36.53;17.60;;;0.60;99.90;;;;;;5022010;28;20465;-63
2021/01/28 00:51:34;;;;;;;37.73;17.43;;;0.60;99.90;;;;;;5024072;28;20187;-61
2021/01/28 00:54:02;;;;;;;43.17;19.50;;;0.60;99.90;;;;;;5043863;28;20499;-66
2021/01/28 00:56:28;;;;;;;41.63;18.20;;;0.60;99.90;;;;;;5047992;28;20228;-62
2021/01/28 00:58:53;;;;;;;40.10;18.30;;;0.60;99.90;;;;;;5043527;28;20963;-62
2021/01/28 01:01:19;;;;;;;41.60;18.40;;;0.70;99.90;;;;;;5032374;28;20178;-61
2021/01/28 01:03:44;;;;;;;39.67;17.47;;;0.60;99.90;;;;;;5035264;28;20186;-61
2021/01/28 01:06:10;;;;;;;40.27;18.97;;;0.60;99.90;;;;;;5028904;28;20663;-61
2021/01/28 01:08:36;;;;;;;37.70;17.70;;;0.70;99.90;;;;;;5028842;28;20193;-61
2021/01/28 01:11:08;;;;;;;44.43;20.00;;;0.70;99.90;;;;;;5028979;28;20217;-59
2021/01/28 01:13:36;;;;;;;41.07;19.00;;;0.60;99.90;;;;;;5030509;28;20568;-62
2021/01/28 01:16:07;;;;;;;42.93;19.20;;;0.70;99.90;;;;;;5023407;28;20542;-63
2021/01/28 01:18:34;;;;;;;46.43;19.50;;;0.70;99.90;;;;;;5021656;28;20436;-62
2021/01/28 01:21:02;;;;;;;45.80;20.10;;;0.70;99.90;;;;;;5031874;28;22531;-62
2021/01/28 01:23:28;;;;;;;42.90;19.63;;;0.70;99.90;;;;;;5019623;28;20499;-61
2021/01/28 01:25:54;;;;;;;43.93;20.00;;;0.70;99.90;;;;;;5027551;28;20949;-61
2021/01/28 01:28:20;;;;;;;42.57;20.27;;;0.70;99.90;;;;;;5030623;28;20263;-61
2021/01/28 01:30:46;;;;;;;47.67;21.10;;;0.60;99.90;;;;;;5029418;28;20276;-63
2021/01/28 01:33:11;;;;;;;44.30;19.70;;;0.70;99.90;;;;;;5008703;28;20460;-60
2021/01/28 01:35:38;;;;;;;41.47;19.30;;;0.60;99.90;;;;;;5029806;28;20313;-60
2021/01/28 01:38:04;;;;;;;53.83;20.80;;;0.70;99.90;;;;;;5030072;28;20239;-60
2021/01/28 01:40:40;;;;;;;44.00;19.53;;;0.70;99.90;;;;;;5031957;28;20470;-60
2021/01/28 01:43:08;;;;;;;48.77;20.93;;;0.70;99.90;;;;;;5031302;28;20443;-60
2021/01/28 01:45:52;;;;;;;49.47;21.43;;;0.70;99.90;;;;;;5032115;28;20447;-60
2021/01/28 01:48:24;;;;;;;44.80;19.73;;;0.70;99.90;;;;;;5031462;28;20466;-59
2021/01/28 01:50:50;;;;;;;44.77;21.37;;;0.70;99.90;;;;;;5020413;28;20842;-60
2021/01/28 01:53:32;;;;;;;45.70;19.13;;;0.70;99.90;;;;;;5029182;28;20428;-60
2021/01/28 01:56:00;;;;;;;44.90;19.30;;;0.70;99.90;;;;;;5028514;28;20213;-60
2021/01/28 01:58:55;;;;;;;41.23;19.20;;;0.70;99.90;;;;;;5031330;28;20719;-60
2021/01/28 02:01:24;;;;;;;42.90;19.47;;;0.70;99.90;;;;;;5028460;28;20942;-60
2021/01/28 02:03:52;;;;;;;42.00;19.07;;;0.70;99.90;;;;;;5029241;28;20432;-60
2021/01/28 02:06:38;;;;;;;52.53;21.87;;;0.70;99.90;;;;;;5031964;28;21029;-61
2021/01/28 02:09:07;;;;;;;46.77;19.67;;;0.70;99.90;;;;;;5052712;28;20606;-63
2021/01/28 02:11:32;;;;;;;45.70;20.93;;;0.70;99.90;;;;;;5055230;28;20443;-60
2021/01/28 02:14:01;;;;;;;47.40;19.93;;;0.70;99.90;;;;;;5055089;28;20429;-61
2021/01/28 02:16:31;;;;;;;48.10;22.00;;;0.70;99.90;;;;;;5054078;28;20456;-60
2021/01/28 02:18:59;;;;;;;49.33;20.57;;;0.70;99.90;;;;;;5027049;28;21043;-59
2021/01/28 02:21:34;;;;;;;59.30;22.63;;;0.70;99.90;;;;;;5028097;28;20434;-60
2021/01/28 02:24:12;;;;;;;48.07;20.53;;;0.70;99.90;;;;;;5028863;28;20424;-60
2021/01/28 02:26:47;;;;;;;50.03;19.70;;;0.80;99.90;;;;;;5026996;28;20476;-60
2021/01/28 02:29:14;;;;;;;51.83;20.23;;;0.80;99.90;;;;;;5028051;28;20455;-61
2021/01/28 02:31:47;;;;;;;52.80;21.03;;;0.80;99.90;;;;;;5027466;28;20442;-60
2021/01/28 02:34:13;;;;;;;58.00;20.57;;;0.80;99.90;;;;;;5048441;28;20421;-60
2021/01/28 02:36:45;;;;;;;49.23;19.53;;;0.80;99.90;;;;;;5047313;28;21086;-61
2021/01/28 02:39:15;;;;;;;50.30;19.70;;;0.80;99.90;;;;;;5047024;28;20436;-62
2021/01/28 02:41:44;;;;;;;44.47;19.70;;;0.80;99.90;;;;;;5054511;28;20447;-65
2021/01/28 02:44:10;;;;;;;51.77;21.07;;;0.80;99.90;;;;;;5055422;28;20512;-61
2021/01/28 02:46:38;;;;;;;64.70;21.80;;;0.80;99.90;;;;;;5044638;28;20849;-59
2021/01/28 02:49:06;;;;;;;55.63;22.77;;;0.80;99.90;;;;;;5025657;28;20202;-60
2021/01/28 02:51:32;;;;;;;52.10;20.73;;;0.80;99.90;;;;;;5028553;28;20479;-59
2021/01/28 02:53:58;;;;;;;48.40;20.67;;;0.80;99.90;;;;;;5017957;28;20758;-60
2021/01/28 02:56:25;;;;;;;56.93;21.77;;;0.70;99.90;;;;;;5020463;28;20205;-59
2021/01/28 02:58:54;;;;;;;50.37;20.67;;;0.70;99.90;;;;;;5028410;28;20183;-59
2021/01/28 03:01:20;;;;;;;57.40;21.00;;;0.70;99.90;;;;;;5025467;28;20436;-60
2021/01/28 03:03:47;;;;;;;53.97;21.20;;;0.70;99.90;;;;;;5026542;28;20533;-59
2021/01/28 03:06:13;;;;;;;54.50;21.83;;;0.70;99.90;;;;;;5030036;28;20441;-60
2021/01/28 03:08:39;;;;;;;51.97;20.90;;;0.80;99.90;;;;;;5029950;28;20438;-60
2021/01/28 03:11:06;;;;;;;48.27;21.70;;;0.80;99.90;;;;;;5025579;28;20814;-59
2021/01/28 03:13:32;;;;;;;54.90;22.40;;;0.80;99.90;;;;;;5030911;28;20430;-59
2021/01/28 03:15:59;;;;;;;47.90;19.57;;;0.80;99.90;;;;;;5027792;28;20468;-59
2021/01/28 03:18:29;;;;;;;60.30;22.40;;;0.80;99.90;;;;;;5027118;28;20437;-59
2021/01/28 03:20:55;;;;;;;58.43;21.63;;;0.80;99.90;;;;;;5025595;28;20534;-60
2021/01/28 03:23:24;;;;;;;46.13;19.23;;;0.80;99.90;;;;;;5028535;28;20198;-59
2021/01/28 03:25:49;;;;;;;64.90;23.90;;;0.80;99.90;;;;;;5026245;28;20965;-60
2021/01/28 03:28:16;;;;;;;50.77;20.47;;;0.80;99.90;;;;;;5026152;28;20451;-60
2021/01/28 03:30:44;;;;;;;52.63;21.03;;;0.80;99.90;;;;;;5050982;28;20212;-60
2021/01/28 03:33:14;;;;;;;62.90;22.20;;;0.80;99.90;;;;;;5053846;28;20448;-61
2021/01/28 03:35:40;;;;;;;56.73;22.23;;;0.80;99.90;;;;;;5050036;28;20536;-61
2021/01/28 03:38:08;;;;;;;63.27;22.97;;;0.80;99.90;;;;;;5041095;28;20444;-59
2021/01/28 03:40:35;;;;;;;58.43;22.33;;;0.80;99.90;;;;;;5028641;28;20463;-60
2021/01/28 03:43:01;;;;;;;55.40;21.77;;;0.80;99.90;;;;;;5029305;28;20423;-60
2021/01/28 03:45:27;;;;;;;67.63;22.97;;;0.80;99.90;;;;;;5024391;28;20515;-60
2021/01/28 03:47:57;;;;;;;55.80;21.30;;;0.80;99.90;;;;;;5026650;28;20201;-60
2021/01/28 03:50:25;;;;;;;49.80;20.53;;;0.80;99.90;;;;;;5013224;28;20891;-60
2021/01/28 03:52:51;;;;;;;56.03;20.50;;;0.80;99.90;;;;;;5023986;28;20441;-60
2021/01/28 03:55:17;;;;;;;51.97;20.10;;;0.80;99.90;;;;;;5028971;28;20526;-60
2021/01/28 03:57:47;;;;;;;51.50;20.13;;;0.80;99.90;;;;;;5029291;28;20720;-60
2021/01/28 04:00:16;;;;;;;56.10;20.90;;;0.80;99.90;;;;;;5019562;28;20854;-60
2021/01/28 04:02:42;;;;;;;57.83;19.10;;;0.80;99.90;;;;;;5030190;28;20519;-60
2021/01/28 04:05:08;;;;;;;50.13;19.97;;;0.80;99.90;;;;;;5029873;28;20519;-60
2021/01/28 04:07:34;;;;;;;56.33;20.73;;;0.80;99.90;;;;;;5021409;28;20933;-59
2021/01/28 04:09:59;;;;;;;49.07;20.33;;;0.80;99.90;;;;;;5025998;28;20562;-59
2021/01/28 04:12:25;;;;;;;52.60;18.70;;;0.80;99.90;;;;;;5027284;28;20562;-60
2021/01/28 04:14:50;;;;;;;51.00;21.57;;;0.80;99.90;;;;;;5025704;28;20191;-58
2021/01/28 04:17:16;;;;;;;56.47;20.17;;;0.80;99.90;;;;;;5034678;28;20241;-61
2021/01/28 04:19:42;;;;;;;54.43;20.60;;;0.80;99.90;;;;;;5052217;28;20221;-62
2021/01/28 04:22:08;;;;;;;52.67;21.67;;;0.80;99.90;;;;;;5038832;28;20841;-61
2021/01/28 04:24:36;;;;;;;52.13;19.73;;;0.80;99.90;;;;;;5027749;28;20199;-60
2021/01/28 04:27:02;;;;;;;57.23;19.77;;;0.80;99.90;;;;;;5025692;28;20425;-60
2021/01/28 04:29:29;;;;;;;58.90;21.73;;;0.80;99.90;;;;;;5029832;28;21582;-61
2021/01/28 04:31:55;;;;;;;53.97;20.63;;;0.80;99.90;;;;;;5028944;28;20427;-60
2021/01/28 04:34:20;;;;;;;53.77;20.10;;;0.80;99.90;;;;;;5026555;28;20444;-60
2021/01/28 04:36:46;;;;;;;62.80;22.27;;;0.80;99.90;;;;;;5022956;28;20468;-61
2021/01/28 04:39:12;;;;;;;55.50;21.00;;;0.80;99.90;;;;;;5023450;28;20210;-61
2021/01/28 04:41:37;;;;;;;58.10;20.70;;;0.80;99.90;;;;;;5023306;28;20185;-60
2021/01/28 04:44:05;;;;;;;56.83;23.00;;;0.80;99.90;;;;;;5023556;28;20232;-60
2021/01/28 04:46:39;;;;;;;63.90;23.17;;;0.80;99.90;;;;;;5029809;28;20181;-60
2021/01/28 04:49:06;;;;;;;52.07;20.90;;;0.80;99.90;;;;;;5018977;28;20922;-65
2021/01/28 04:51:33;;;;;;;54.07;19.57;;;0.80;99.90;;;;;;5022310;28;20435;-61
2021/01/28 04:54:02;;;;;;;53.97;21.60;;;0.90;99.90;;;;;;5029331;28;20866;-60
2021/01/28 04:56:29;;;;;;;59.03;22.10;;;0.90;99.90;;;;;;5040256;28;20463;-61
2021/01/28 04:59:08;;;;;;;57.23;22.60;;;0.90;99.90;;;;;;5045598;28;20505;-61
2021/01/28 05:01:34;;;;;;;55.73;20.87;;;0.90;99.90;;;;;;5040725;28;20428;-61
2021/01/28 05:04:04;;;;;;;60.97;23.00;;;0.90;99.90;;;;;;5040782;28;20799;-61
2021/01/28 05:06:31;;;;;;;58.53;22.00;;;0.90;99.90;;;;;;5024838;28;20444;-60
2021/01/28 05:08:57;;;;;;;56.77;21.20;;;0.90;99.90;;;;;;5031333;28;20541;-60
2021/01/28 05:11:23;;;;;;;48.00;20.73;;;0.90;99.90;;;;;;5029754;28;20524;-60
2021/01/28 05:13:48;;;;;;;48.90;20.87;;;0.90;99.90;;;;;;5032415;28;20201;-60
2021/01/28 05:16:36;;;;;;;52.83;20.47;;;0.90;99.90;;;;;;5033146;28;20195;-60
2021/01/28 05:19:10;;;;;;;52.83;20.33;;;0.90;99.90;;;;;;5028835;28;20174;-61
2021/01/28 05:21:40;;;;;;;58.03;20.87;;;0.90;99.90;;;;;;5024199;28;20484;-61
2021/01/28 05:24:26;;;;;;;59.70;22.90;;;0.90;99.90;;;;;;5028898;28;20425;-61
2021/01/28 05:26:52;;;;;;;61.87;26.50;;;0.90;99.90;;;;;;5021952;28;20575;-61
2021/01/28 05:29:28;;;;;;;82.37;30.10;;;1.00;99.90;;;;;;5028334;28;20528;-60
2021/01/28 05:32:00;;;;;;;76.90;28.00;;;1.00;99.90;;;;;;5028330;28;20205;-61
2021/01/28 05:34:29;;;;;;;80.60;24.93;;;1.00;99.90;;;;;;5023182;28;20429;-61
2021/01/28 05:37:19;;;;;;;71.87;26.33;;;1.00;99.90;;;;;;5029100;28;20452;-61
2021/01/28 05:39:45;;;;;;;65.60;23.47;;;1.00;99.90;;;;;;5028330;28;20505;-61
2021/01/28 05:42:29;;;;;;;51.10;18.50;;;1.00;99.90;;;;;;5013604;28;20429;-61
2021/01/28 05:44:56;;;;;;;54.93;19.30;;;1.00;99.90;;;;;;5031329;28;20170;-61
2021/01/28 05:47:33;;;;;;;51.40;19.37;;;1.00;99.90;;;;;;5025971;28;20428;-61
2021/01/28 05:50:23;;;;;;;50.57;18.90;;;1.00;99.90;;;;;;5023991;28;20463;-61
2021/01/28 05:52:50;;;;;;;50.47;21.20;;;1.00;99.90;;;;;;5025760;28;20443;-60
2021/01/28 05:55:21;;;;;;;49.17;19.80;;;1.00;99.90;;;;;;5023715;28;20507;-60
2021/01/28 05:57:54;;;;;;;45.13;18.33;;;1.00;99.90;;;;;;5024137;28;20440;-61
2021/01/28 06:00:36;;;;;;;47.33;17.77;;;1.00;99.90;;;;;;5029901;28;20455;-60
2021/01/28 06:03:16;;;;;;;42.90;17.87;;;1.00;99.90;;;;;;5021570;28;20464;-61
2021/01/28 06:05:57;;;;;;;42.77;17.10;;;1.00;99.90;;;;;;5030278;28;20897;-60
2021/01/28 06:08:55;;;;;;;38.83;17.63;;;1.10;99.90;;;;;;5020281;28;20500;-60
2021/01/28 06:11:32;;;;;;;49.33;19.30;;;1.10;99.90;;;;;;5021977;28;20510;-60
2021/01/28 06:14:16;;;;;;;47.70;19.57;;;1.10;99.90;;;;;;5030342;28;20440;-60
2021/01/28 06:17:23;;;;;;;51.20;18.63;;;1.10;99.90;;;;;;5025936;28;20560;-59
2021/01/28 06:20:00;;;;;;;58.07;20.23;;;1.10;99.90;;;;;;5027934;28;20497;-59
2021/01/28 06:22:41;;;;;;;44.33;18.53;;;1.10;99.90;;;;;;5028822;28;20432;-61
2021/01/28 06:25:39;;;;;;;48.00;19.83;;;1.20;99.90;;;;;;5026832;28;20426;-60
2021/01/28 06:28:44;;;;;;;44.00;18.87;;;1.20;99.90;;;;;;5043600;28;20954;-61
2021/01/28 06:31:12;;;;;;;43.57;18.97;;;1.20;99.90;;;;;;5009757;28;20575;-61
2021/01/28 06:33:54;;;;;;;34.97;15.60;;;1.10;99.90;;;;;;5016381;28;20493;-61
2021/01/28 06:36:37;;;;;;;28.33;12.50;;;1.20;99.90;;;;;;5017785;28;20463;-59
2021/01/28 06:39:33;;;;;;;28.83;12.77;;;1.20;99.90;;;;;;5015674;28;20532;-59
2021/01/28 06:42:35;;;;;;;37.00;15.53;;;1.30;99.90;;;;;;5018381;28;20528;-63
2021/01/28 06:45:23;;;;;;;30.17;12.87;;;1.30;99.90;;;;;;5012356;28;20520;-61
2021/01/28 06:48:12;;;;;;;26.10;12.33;;;1.40;99.90;;;;;;5016394;28;21009;-61
2021/01/28 06:51:02;;;;;;;16.80;7.60;;;1.40;99.90;;;;;;5013143;28;20461;-63
2021/01/28 06:53:47;;;;;;;21.77;10.10;;;1.40;99.90;;;;;;5007995;28;20930;-61
2021/01/28 06:56:28;;;;;;;21.00;10.20;;;1.50;99.90;;;;;;5028952;28;20454;-61
2021/01/28 06:59:13;;;;;;;18.67;8.57;;;1.50;99.90;;;;;;5020240;28;21123;-61
2021/01/28 07:01:56;;;;;;;15.27;7.47;;;1.50;99.90;;;;;;5014598;28;20426;-61
2021/01/28 07:04:24;;;;;;;11.60;6.03;;;1.50;99.90;;;;;;5019897;28;21030;-62
2021/01/28 07:07:07;;;;;;;17.40;7.60;;;1.50;99.90;;;;;;5024891;28;20432;-59
2021/01/28 07:09:45;;;;;;;31.67;13.50;;;1.60;99.90;;;;;;5018066;28;20829;-63
2021/01/28 07:12:17;;;;;;;24.83;10.00;;;1.60;99.90;;;;;;5021116;28;20448;-64
2021/01/28 07:14:48;;;;;;;16.23;8.47;;;1.60;99.90;;;;;;5020734;28;20432;-61
2021/01/28 07:17:20;;;;;;;16.13;7.77;;;1.60;99.90;;;;;;5021508;28;20464;-61
2021/01/28 07:20:01;;;;;;;14.77;8.30;;;1.60;99.90;;;;;;5019394;28;20456;-60
2021/01/28 07:22:32;;;;;;;7.57;4.73;;;1.60;99.90;;;;;;5018748;28;20525;-60
2021/01/28 07:25:32;;;;;;;9.50;4.30;;;1.60;99.90;;;;;;5016631;28;20519;-60
2021/01/28 07:28:02;;;;;;;3.70;3.40;;;1.60;99.90;;;;;;5017305;28;20459;-63
2021/01/28 07:30:38;;;;;;;4.17;3.23;;;1.70;99.90;;;;;;5011393;28;20452;-62
2021/01/28 07:33:05;;;;;;;5.00;3.30;;;1.70;99.90;;;;;;5018852;28;20529;-61
2021/01/28 07:35:39;;;;;;;5.20;3.20;;;1.70;99.90;;;;;;5012772;28;20884;-59
2021/01/28 07:38:26;;;;;;;5.50;3.97;;;1.70;99.90;;;;;;5027934;28;20473;-63
2021/01/28 07:41:08;;;;;;;4.73;3.63;;;1.80;99.90;;;;;;5023983;28;20452;-61
2021/01/28 07:43:46;;;;;;;7.87;4.50;;;1.80;99.90;;;;;;5031648;28;20431;-62
2021/01/28 07:46:17;;;;;;;6.70;4.23;;;1.80;99.90;;;;;;5017328;28;20899;-61
2021/01/28 07:48:46;;;;;;;7.20;4.40;;;1.80;99.90;;;;;;5016676;28;20493;-60
2021/01/28 07:51:34;;;;;;;8.17;4.37;;;1.80;99.90;;;;;;5020979;28;20532;-60
2021/01/28 07:54:23;;;;;;;5.93;4.10;;;1.80;99.90;;;;;;5018250;28;20439;-63
2021/01/28 07:56:51;;;;;;;8.00;4.77;;;1.80;99.90;;;;;;5014249;28;21335;-61
2021/01/28 07:59:23;;;;;;;6.57;4.57;;;1.90;99.90;;;;;;5017565;28;20456;-61
2021/01/28 08:01:55;;;;;;;6.57;3.93;;;1.90;99.90;;;;;;5017957;28;20826;-60
2021/01/28 08:04:41;;;;;;;6.77;4.10;;;1.90;99.90;;;;;;5011988;28;20475;-60
2021/01/28 08:07:09;;;;;;;8.03;4.23;;;1.90;99.90;;;;;;5018686;28;21062;-61
2021/01/28 08:09:52;;;;;;;5.40;4.10;;;1.90;99.90;;;;;;5011925;28;20550;-61
2021/01/28 08:12:35;;;;;;;7.60;4.10;;;1.90;99.90;;;;;;5015484;28;20471;-59
2021/01/28 08:15:14;;;;;;;5.10;3.83;;;1.90;99.90;;;;;;5016806;28;20440;-58
2021/01/28 08:17:40;;;;;;;9.63;5.30;;;2.00;99.90;;;;;;5014640;28;20435;-59
2021/01/28 08:20:25;;;;;;;11.50;5.90;;;2.00;99.90;;;;;;5018468;28;21285;-60
2021/01/28 08:23:05;;;;;;;7.10;4.07;;;2.00;99.90;;;;;;5015911;28;20440;-60
2021/01/28 08:25:35;;;;;;;9.80;4.97;;;2.00;99.90;;;;;;5013539;28;20506;-61
2021/01/28 08:28:13;;;;;;;8.03;4.60;;;2.00;99.90;;;;;;5016974;28;20484;-60
2021/01/28 08:30:40;;;;;;;6.17;4.10;;;2.00;99.90;;;;;;5022598;28;20466;-59
2021/01/28 08:33:08;;;;;;;5.03;3.90;;;2.00;99.90;;;;;;5022266;28;20444;-60
2021/01/28 08:35:39;;;;;;;7.53;4.63;;;2.00;99.90;;;;;;5021629;28;20958;-59
2021/01/28 08:38:07;;;;;;;9.50;4.33;;;2.10;99.90;;;;;;5022384;28;20432;-61
2021/01/28 08:40:35;;;;;;;7.03;3.63;;;2.10;99.90;;;;;;5016716;28;20448;-60
2021/01/28 08:43:12;;;;;;;5.07;3.40;;;2.10;99.90;;;;;;5022188;28;20551;-60
2021/01/28 08:45:38;;;;;;;7.63;3.57;;;2.10;99.90;;;;;;5014295;28;20441;-60
2021/01/28 08:48:10;;;;;;;4.03;3.37;;;2.10;99.90;;;;;;5016300;28;20448;-60
2021/01/28 08:50:36;;;;;;;5.63;3.60;;;2.10;99.90;;;;;;5014544;28;20473;-60
2021/01/28 08:53:15;;;;;;;4.57;3.27;;;2.10;99.90;;;;;;5021654;28;20461;-60
2021/01/28 08:55:41;;;;;;;4.00;3.23;;;2.20;99.90;;;;;;5032506;28;20559;-66
2021/01/28 08:58:30;;;;;;;7.63;3.63;;;2.20;99.90;;;;;;5042572;28;20562;-62
2021/01/28 09:01:00;;;;;;;6.23;3.70;;;2.20;99.90;;;;;;5039349;28;20462;-62
2021/01/28 09:03:31;;;;;;;4.47;3.30;;;2.20;99.90;;;;;;5023343;28;20429;-62
2021/01/28 09:06:02;;;;;;;5.00;3.90;;;2.30;99.90;;;;;;5039182;28;20436;-62
2021/01/28 09:08:37;;;;;;;5.13;3.97;;;2.30;99.90;;;;;;5057884;28;20413;-61
2021/01/28 09:11:24;;;;;;;4.60;3.47;;;2.30;99.90;;;;;;5039740;28;20442;-61
2021/01/28 09:14:06;;;;;;;4.70;3.43;;;2.30;99.90;;;;;;5028489;28;20937;-61
2021/01/28 09:16:33;;;;;;;9.87;4.13;;;2.30;99.90;;;;;;5016465;28;20471;-60
2021/01/28 09:19:17;;;;;;;6.57;3.90;;;2.30;99.90;;;;;;5014069;28;20515;-61
2021/01/28 09:21:45;;;;;;;7.30;4.47;;;2.40;99.90;;;;;;5014721;28;20441;-61
2021/01/28 09:24:20;;;;;;;6.23;4.10;;;2.40;99.90;;;;;;5006335;28;20531;-60
2021/01/28 09:26:47;;;;;;;7.50;4.77;;;2.40;99.90;;;;;;5014052;28;20432;-61
2021/01/28 09:29:34;;;;;;;6.70;3.90;;;2.40;99.90;;;;;;5018049;28;20582;-60
2021/01/28 09:32:07;;;;;;;8.10;4.80;;;2.40;99.90;;;;;;5014235;28;21235;-60
2021/01/28 09:34:36;;;;;;;8.20;5.63;;;2.50;99.90;;;;;;5015435;28;20444;-60
2021/01/28 09:37:06;;;;;;;7.20;5.30;;;2.50;99.90;;;;;;5015737;28;20472;-60
2021/01/28 09:39:52;;;;;;;8.40;5.93;;;2.50;99.90;;;;;;5018158;28;20491;-61
2021/01/28 09:42:28;;;;;;;7.63;5.40;;;2.50;99.90;;;;;;5015782;28;20823;-61
2021/01/28 09:45:08;;;;;;;9.10;5.20;;;2.60;99.90;;;;;;5014648;28;20437;-60
2021/01/28 09:47:34;;;;;;;7.00;3.77;;;2.60;99.90;;;;;;5016035;28;20486;-59
2021/01/28 09:50:03;;;;;;;4.67;3.80;;;2.70;99.90;;;;;;5018767;28;22329;-61
2021/01/28 09:52:35;;;;;;;4.90;3.37;;;2.70;99.90;;;;;;5014208;28;20438;-60
2021/01/28 09:55:11;;;;;;;4.67;3.10;;;2.70;99.90;;;;;;5019730;28;20426;-60
2021/01/28 09:57:37;;;;;;;3.33;2.80;;;2.80;99.90;;;;;;5021309;28;20453;-61
2021/01/28 10:00:07;;;;;;;2.53;2.20;;;2.80;99.90;;;;;;5016845;28;20566;-61
2021/01/28 10:02:46;;;;;;;3.43;2.70;;;2.80;99.90;;;;;;5014863;28;20524;-63
2021/01/28 10:05:14;;;;;;;2.80;2.37;;;2.80;99.90;;;;;;5009526;28;20441;-61
2021/01/28 10:07:40;;;;;;;4.53;2.63;;;2.80;99.90;;;;;;5017159;28;20431;-60
2021/01/28 10:10:10;;;;;;;2.50;2.30;;;2.80;99.90;;;;;;5020202;28;20460;-61
2021/01/28 10:12:36;;;;;;;3.87;2.60;;;2.80;99.90;;;;;;5041464;28;20207;-62
2021/01/28 10:15:03;;;;;;;2.83;2.30;;;2.80;99.90;;;;;;5042420;28;20456;-60
2021/01/28 10:17:28;;;;;;;2.97;2.67;;;2.90;99.90;;;;;;5032625;28;20470;-60
2021/01/28 10:19:54;;;;;;;2.90;2.57;;;2.90;99.90;;;;;;5022878;28;20497;-60
2021/01/28 10:22:22;;;;;;;2.80;2.50;;;2.90;99.90;;;;;;5013534;28;20188;-60
2021/01/28 10:24:51;;;;;;;4.70;2.97;;;2.90;99.90;;;;;;5013702;28;20278;-59
2021/01/28 10:27:17;;;;;;;3.40;2.40;;;2.90;99.90;;;;;;5019304;28;20445;-61
2021/01/28 10:29:46;;;;;;;3.90;2.83;;;2.90;99.90;;;;;;5013704;28;20457;-61
2021/01/28 10:32:14;;;;;;;3.63;2.73;;;2.90;99.90;;;;;;5015717;28;20452;-61
2021/01/28 10:34:40;;;;;;;2.50;2.30;;;2.90;99.90;;;;;;5021848;28;20465;-60
2021/01/28 10:37:07;;;;;;;3.00;2.47;;;3.00;99.90;;;;;;5015913;28;20470;-60
2021/01/28 10:39:33;;;;;;;2.73;2.53;;;3.00;99.90;;;;;;5013044;28;20986;-61
2021/01/28 10:41:59;;;;;;;2.60;2.40;;;3.00;99.90;;;;;;5013737;28;20435;-61
2021/01/28 10:44:31;;;;;;;3.80;2.70;;;3.00;99.90;;;;;;5015787;28;20259;-61
2021/01/28 10:46:57;;;;;;;6.30;3.00;;;3.10;99.90;;;;;;5014839;28;20448;-61
2021/01/28 10:49:25;;;;;;;3.10;2.77;;;3.10;99.90;;;;;;5013159;28;20687;-60
2021/01/28 10:51:51;;;;;;;2.60;2.40;;;3.10;99.90;;;;;;5018287;28;20187;-59
2021/01/28 10:54:17;;;;;;;2.83;2.33;;;3.10;99.90;;;;;;5027756;28;20512;-62
2021/01/28 10:56:43;;;;;;;4.10;3.47;;;3.20;99.90;;;;;;5020110;28;20559;-63
2021/01/28 10:59:08;;;;;;;5.10;3.00;;;3.20;99.90;;;;;;5025604;28;20430;-62
2021/01/28 11:01:35;;;;;;;6.50;3.70;;;3.20;99.90;;;;;;5010997;28;20819;-63
2021/01/28 11:04:00;;;;;;;3.97;3.23;;;3.30;99.90;;;;;;5018759;28;20689;-61
2021/01/28 11:06:26;;;;;;;3.07;2.77;;;3.30;99.90;;;;;;5024055;28;20462;-60
2021/01/28 11:08:52;;;;;;;5.70;3.33;;;3.40;99.90;;;;;;5019153;28;20580;-60
2021/01/28 11:11:18;;;;;;;3.60;2.90;;;3.40;99.90;;;;;;5015034;28;20243;-63
2021/01/28 11:13:44;;;;;;;3.77;3.30;;;3.40;99.90;;;;;;5018896;28;20183;-61
2021/01/28 11:16:11;;;;;;;3.57;2.97;;;3.40;99.90;;;;;;5024349;28;20470;-58
2021/01/28 11:18:38;;;;;;;5.60;3.40;;;3.40;99.90;;;;;;5024832;28;20438;-59
2021/01/28 11:21:03;;;;;;;7.27;3.90;;;3.40;99.90;;;;;;5034886;28;20893;-63
2021/01/28 11:23:29;;;;;;;4.87;3.70;;;3.40;99.90;;;;;;5009731;28;21046;-61
2021/01/28 11:25:55;;;;;;;5.23;3.40;;;3.40;99.90;;;;;;5028439;28;20251;-61
2021/01/28 11:28:23;;;;;;;6.70;3.90;;;3.30;99.90;;;;;;5025097;28;20192;-60
2021/01/28 11:30:49;;;;;;;5.67;3.10;;;3.40;99.90;;;;;;5023619;28;20452;-64
2021/01/28 11:33:15;;;;;;;4.17;2.60;;;3.40;99.90;;;;;;5029226;28;20568;-61
2021/01/28 11:35:41;;;;;;;3.60;2.90;;;3.40;99.90;;;;;;5031406;28;20455;-59
2021/01/28 11:38:10;;;;;;;3.33;3.03;;;3.40;99.90;;;;;;5020169;28;20447;-62
2021/01/28 11:40:37;;;;;;;5.80;3.37;;;3.50;99.90;;;;;;5007347;28;20329;-61
2021/01/28 11:43:04;;;;;;;3.30;2.03;;;3.50;99.90;;;;;;5004887;28;20433;-60
2021/01/28 11:45:35;;;;;;;3.20;2.43;;;3.60;99.90;;;;;;5017907;28;20443;-60
2021/01/28 11:48:02;;;;;;;3.27;2.30;;;3.60;99.90;;;;;;5019587;28;21620;-60
2021/01/28 11:50:31;;;;;;;2.60;2.30;;;3.80;99.90;;;;;;5023434;28;20463;-61
2021/01/28 11:52:57;;;;;;;2.40;2.20;;;4.00;99.90;;;;;;5017649;28;21472;-63
2021/01/28 11:55:25;;;;;;;2.40;2.07;;;4.20;99.90;;;;;;5008433;28;20456;-59
2021/01/28 11:57:51;;;;;;;2.40;1.83;;;4.40;99.90;;;;;;5003696;28;20427;-60
2021/01/28 12:00:18;;;;;;;1.80;1.70;;;4.50;99.90;;;;;;5001001;28;22354;-60
2021/01/28 12:02:44;;;;;;;5.03;1.87;;;4.60;99.90;;;;;;5011554;28;20419;-59
2021/01/28 12:05:14;;;;;;;1.93;1.80;;;4.70;99.90;;;;;;5012588;28;20464;-60
2021/01/28 12:07:40;;;;;;;1.73;1.63;;;4.80;99.90;;;;;;5007839;28;21076;-60
2021/01/28 12:10:08;;;;;;;2.50;1.93;;;4.80;99.90;;;;;;5010817;28;20454;-61
2021/01/28 12:12:37;;;;;;;1.80;1.70;;;5.00;99.90;;;;;;5012909;28;20176;-64
2021/01/28 12:15:05;;;;;;;1.70;1.40;;;5.30;99.90;;;;;;5008947;28;21047;-61
2021/01/28 12:17:30;;;;;;;1.67;1.50;;;5.40;99.90;;;;;;5013994;28;20443;-61
2021/01/28 12:19:56;;;;;;;1.30;1.20;;;5.50;99.90;;;;;;5017319;28;21014;-64
2021/01/28 12:22:21;;;;;;;1.40;1.30;;;5.60;99.90;;;;;;5015499;28;20684;-62
2021/01/28 12:24:47;;;;;;;1.90;1.10;;;5.60;99.90;;;;;;5016791;28;20358;-63
2021/01/28 12:27:13;;;;;;;1.43;1.23;;;5.60;99.90;;;;;;5013713;28;20196;-60
2021/01/28 12:29:40;;;;;;;1.90;1.20;;;5.60;99.90;;;;;;5004685;28;20919;-61
2021/01/28 12:32:07;;;;;;;1.23;1.13;;;5.70;99.90;;;;;;5024195;28;20175;-62
2021/01/28 12:34:33;;;;;;;0.80;0.80;;;5.70;99.90;;;;;;5008851;28;21053;-62
2021/01/28 12:36:59;;;;;;;3.40;1.27;;;5.60;99.90;;;;;;5011663;28;20481;-62
2021/01/28 12:39:25;;;;;;;2.50;1.53;;;5.60;99.90;;;;;;5016281;28;20513;-61
2021/01/28 12:41:51;;;;;;;1.20;1.10;;;5.50;99.90;;;;;;5009965;28;22758;-60
2021/01/28 12:44:17;;;;;;;3.60;1.33;;;5.50;99.90;;;;;;5026627;28;20431;-61
2021/01/28 12:46:42;;;;;;;1.80;1.33;;;5.50;99.90;;;;;;5012111;28;20951;-62
2021/01/28 12:49:08;;;;;;;1.57;1.30;;;5.50;99.90;;;;;;5011493;28;20188;-62
2021/01/28 12:51:34;;;;;;;0.90;0.90;;;5.40;99.90;;;;;;5018400;28;20272;-61
2021/01/28 12:54:02;;;;;;;1.37;1.27;;;5.40;99.90;;;;;;5015571;28;20183;-62
2021/01/28 12:56:28;;;;;;;1.60;1.27;;;5.40;99.90;;;;;;5020426;28;20945;-59
2021/01/28 12:58:53;;;;;;;1.07;0.97;;;5.50;99.90;;;;;;5014769;28;20510;-59
2021/01/28 13:01:20;;;;;;;1.27;1.17;;;5.50;99.90;;;;;;5019123;28;20252;-60
2021/01/28 13:03:49;;;;;;;1.97;1.27;;;5.50;99.90;;;;;;5033304;28;20300;-60